sensor_id;sensor_type;location;lat;lon;timestamp;P1;durP1;ratioP1;P2;durP2;ratioP2
54705;SDS011;40603;48.774;8.916;2023-03-14T00:01:16;1.05;;;0.80;;
54705;SDS011;40603;48.774;8.916;2023-03-14T00:03:43;2.03;;;0.95;;
54705;SDS011;40603;48.774;8.916;2023-03-14T00:06:09;1.88;;;1.35;;
54705;SDS011;40603;48.774;8.916;2023-03-14T00:08:35;2.13;;;1.38;;
54705;SDS011;40603;48.774;8.916;2023-03-14T00:11:04;1.70;;;1.30;;
54705;SDS011;40603;48.774;8.916;2023-03-14T00:13:34;1.70;;;1.13;;
54705;SDS011;40603;48.774;8.916;2023-03-14T00:16:03;2.03;;;1.33;;
54705;SDS011;40603;48.774;8.916;2023-03-14T00:18:30;2.30;;;1.10;;
54705;SDS011;40603;48.774;8.916;2023-03-14T00:20:57;1.60;;;1.20;;
54705;SDS011;40603;48.774;8.916;2023-03-14T00:23:23;1.95;;;1.10;;
54705;SDS011;40603;48.774;8.916;2023-03-14T00:25:48;2.72;;;1.20;;
54705;SDS011;40603;48.774;8.916;2023-03-14T00:28:14;1.30;;;1.08;;
54705;SDS011;40603;48.774;8.916;2023-03-14T00:30:39;4.85;;;1.27;;
54705;SDS011;40603;48.774;8.916;2023-03-14T00:33:04;2.88;;;1.30;;
54705;SDS011;40603;48.774;8.916;2023-03-14T00:35:30;2.28;;;1.20;;
54705;SDS011;40603;48.774;8.916;2023-03-14T00:37:55;1.38;;;1.13;;
54705;SDS011;40603;48.774;8.916;2023-03-14T00:40:20;3.38;;;1.30;;
54705;SDS011;40603;48.774;8.916;2023-03-14T00:42:45;1.95;;;1.08;;
54705;SDS011;40603;48.774;8.916;2023-03-14T00:45:11;1.20;;;0.98;;
54705;SDS011;40603;48.774;8.916;2023-03-14T00:47:36;1.30;;;1.20;;
54705;SDS011;40603;48.774;8.916;2023-03-14T00:50:01;0.95;;;0.95;;
54705;SDS011;40603;48.774;8.916;2023-03-14T00:52:27;2.67;;;1.73;;
54705;SDS011;40603;48.774;8.916;2023-03-14T00:54:52;1.25;;;0.93;;
54705;SDS011;40603;48.774;8.916;2023-03-14T00:57:17;1.73;;;1.20;;
54705;SDS011;40603;48.774;8.916;2023-03-14T00:59:43;1.65;;;0.93;;
54705;SDS011;40603;48.774;8.916;2023-03-14T01:02:08;3.85;;;1.00;;
54705;SDS011;40603;48.774;8.916;2023-03-14T01:04:33;3.10;;;0.98;;
54705;SDS011;40603;48.774;8.916;2023-03-14T01:06:59;1.73;;;1.30;;
54705;SDS011;40603;48.774;8.916;2023-03-14T01:09:24;4.03;;;1.05;;
54705;SDS011;40603;48.774;8.916;2023-03-14T01:11:50;0.75;;;0.70;;
54705;SDS011;40603;48.774;8.916;2023-03-14T01:14:15;3.22;;;0.98;;
54705;SDS011;40603;48.774;8.916;2023-03-14T01:16:40;0.70;;;0.60;;
54705;SDS011;40603;48.774;8.916;2023-03-14T01:19:06;1.30;;;0.80;;
54705;SDS011;40603;48.774;8.916;2023-03-14T01:21:32;1.65;;;0.57;;
54705;SDS011;40603;48.774;8.916;2023-03-14T01:23:59;1.40;;;0.52;;
54705;SDS011;40603;48.774;8.916;2023-03-14T01:26:26;3.25;;;0.65;;
54705;SDS011;40603;48.774;8.916;2023-03-14T01:28:53;1.27;;;0.70;;
54705;SDS011;40603;48.774;8.916;2023-03-14T01:31:19;0.50;;;0.50;;
54705;SDS011;40603;48.774;8.916;2023-03-14T01:33:44;0.70;;;0.70;;
54705;SDS011;40603;48.774;8.916;2023-03-14T01:36:10;1.45;;;0.63;;
54705;SDS011;40603;48.774;8.916;2023-03-14T01:38:36;0.40;;;0.40;;
54705;SDS011;40603;48.774;8.916;2023-03-14T01:41:02;3.38;;;0.43;;
54705;SDS011;40603;48.774;8.916;2023-03-14T01:43:28;0.82;;;0.60;;
54705;SDS011;40603;48.774;8.916;2023-03-14T01:48:39;0.73;;;0.55;;
54705;SDS011;40603;48.774;8.916;2023-03-14T01:51:08;2.80;;;1.25;;
54705;SDS011;40603;48.774;8.916;2023-03-14T01:53:36;0.30;;;0.30;;
54705;SDS011;40603;48.774;8.916;2023-03-14T01:56:02;0.70;;;0.60;;
54705;SDS011;40603;48.774;8.916;2023-03-14T01:58:28;2.25;;;0.77;;
54705;SDS011;40603;48.774;8.916;2023-03-14T02:00:56;0.52;;;0.40;;
54705;SDS011;40603;48.774;8.916;2023-03-14T02:03:22;1.58;;;0.55;;
54705;SDS011;40603;48.774;8.916;2023-03-14T02:05:48;0.47;;;0.47;;
54705;SDS011;40603;48.774;8.916;2023-03-14T02:08:15;0.65;;;0.50;;
54705;SDS011;40603;48.774;8.916;2023-03-14T02:10:43;0.77;;;0.40;;
54705;SDS011;40603;48.774;8.916;2023-03-14T02:13:10;0.85;;;0.63;;
54705;SDS011;40603;48.774;8.916;2023-03-14T02:15:35;2.25;;;0.93;;
54705;SDS011;40603;48.774;8.916;2023-03-14T02:18:02;0.95;;;0.50;;
54705;SDS011;40603;48.774;8.916;2023-03-14T02:20:29;1.45;;;0.50;;
54705;SDS011;40603;48.774;8.916;2023-03-14T02:22:59;0.82;;;0.70;;
54705;SDS011;40603;48.774;8.916;2023-03-14T02:25:44;2.15;;;0.55;;
54705;SDS011;40603;48.774;8.916;2023-03-14T02:28:12;3.35;;;0.50;;
54705;SDS011;40603;48.774;8.916;2023-03-14T02:30:38;1.92;;;0.60;;
54705;SDS011;40603;48.774;8.916;2023-03-14T02:33:11;2.05;;;0.50;;
54705;SDS011;40603;48.774;8.916;2023-03-14T02:35:44;0.80;;;0.60;;
54705;SDS011;40603;48.774;8.916;2023-03-14T02:38:31;3.33;;;0.40;;
54705;SDS011;40603;48.774;8.916;2023-03-14T02:40:59;0.63;;;0.40;;
54705;SDS011;40603;48.774;8.916;2023-03-14T02:43:24;1.75;;;0.65;;
54705;SDS011;40603;48.774;8.916;2023-03-14T02:45:50;4.80;;;0.80;;
54705;SDS011;40603;48.774;8.916;2023-03-14T02:48:18;1.10;;;0.70;;
54705;SDS011;40603;48.774;8.916;2023-03-14T02:50:47;1.42;;;0.68;;
54705;SDS011;40603;48.774;8.916;2023-03-14T02:53:18;2.17;;;0.52;;
54705;SDS011;40603;48.774;8.916;2023-03-14T02:55:49;2.63;;;0.50;;
54705;SDS011;40603;48.774;8.916;2023-03-14T02:58:15;1.45;;;0.98;;
54705;SDS011;40603;48.774;8.916;2023-03-14T03:00:40;1.75;;;0.60;;
54705;SDS011;40603;48.774;8.916;2023-03-14T03:03:06;1.85;;;0.73;;
54705;SDS011;40603;48.774;8.916;2023-03-14T03:05:31;2.72;;;0.77;;
54705;SDS011;40603;48.774;8.916;2023-03-14T03:07:57;0.88;;;0.60;;
54705;SDS011;40603;48.774;8.916;2023-03-14T03:10:22;2.17;;;0.70;;
54705;SDS011;40603;48.774;8.916;2023-03-14T03:12:48;3.13;;;0.60;;
54705;SDS011;40603;48.774;8.916;2023-03-14T03:15:13;0.98;;;0.75;;
54705;SDS011;40603;48.774;8.916;2023-03-14T03:17:38;2.92;;;0.70;;
54705;SDS011;40603;48.774;8.916;2023-03-14T03:20:03;3.10;;;0.77;;
54705;SDS011;40603;48.774;8.916;2023-03-14T03:22:30;2.75;;;0.50;;
54705;SDS011;40603;48.774;8.916;2023-03-14T03:24:55;2.97;;;0.50;;
54705;SDS011;40603;48.774;8.916;2023-03-14T03:27:21;5.25;;;0.70;;
54705;SDS011;40603;48.774;8.916;2023-03-14T03:29:46;2.28;;;0.73;;
54705;SDS011;40603;48.774;8.916;2023-03-14T03:32:12;2.53;;;0.50;;
54705;SDS011;40603;48.774;8.916;2023-03-14T03:34:37;2.70;;;0.77;;
54705;SDS011;40603;48.774;8.916;2023-03-14T03:37:02;4.75;;;0.73;;
54705;SDS011;40603;48.774;8.916;2023-03-14T03:39:28;3.88;;;0.73;;
54705;SDS011;40603;48.774;8.916;2023-03-14T03:41:53;3.10;;;0.95;;
54705;SDS011;40603;48.774;8.916;2023-03-14T03:44:18;3.00;;;0.73;;
54705;SDS011;40603;48.774;8.916;2023-03-14T03:46:44;2.08;;;0.70;;
54705;SDS011;40603;48.774;8.916;2023-03-14T03:49:09;2.63;;;0.65;;
54705;SDS011;40603;48.774;8.916;2023-03-14T03:51:34;1.70;;;0.90;;
54705;SDS011;40603;48.774;8.916;2023-03-14T03:54:00;2.58;;;0.80;;
54705;SDS011;40603;48.774;8.916;2023-03-14T03:56:25;3.03;;;0.88;;
54705;SDS011;40603;48.774;8.916;2023-03-14T03:58:50;1.95;;;0.65;;
54705;SDS011;40603;48.774;8.916;2023-03-14T04:01:15;4.05;;;0.75;;
54705;SDS011;40603;48.774;8.916;2023-03-14T04:03:41;5.40;;;0.80;;
54705;SDS011;40603;48.774;8.916;2023-03-14T04:06:08;4.40;;;0.70;;
54705;SDS011;40603;48.774;8.916;2023-03-14T04:08:34;3.40;;;0.70;;
54705;SDS011;40603;48.774;8.916;2023-03-14T04:11:00;1.67;;;0.60;;
54705;SDS011;40603;48.774;8.916;2023-03-14T04:13:26;1.02;;;0.60;;
54705;SDS011;40603;48.774;8.916;2023-03-14T04:15:52;3.92;;;0.80;;
54705;SDS011;40603;48.774;8.916;2023-03-14T04:18:18;2.88;;;0.93;;
54705;SDS011;40603;48.774;8.916;2023-03-14T04:20:44;3.92;;;0.82;;
54705;SDS011;40603;48.774;8.916;2023-03-14T04:23:09;3.22;;;0.80;;
54705;SDS011;40603;48.774;8.916;2023-03-14T04:25:34;5.07;;;0.68;;
54705;SDS011;40603;48.774;8.916;2023-03-14T04:28:00;2.85;;;0.88;;
54705;SDS011;40603;48.774;8.916;2023-03-14T04:30:26;4.50;;;0.85;;
54705;SDS011;40603;48.774;8.916;2023-03-14T04:32:51;5.50;;;0.50;;
54705;SDS011;40603;48.774;8.916;2023-03-14T04:35:16;2.67;;;1.77;;
54705;SDS011;40603;48.774;8.916;2023-03-14T04:37:41;7.07;;;1.13;;
54705;SDS011;40603;48.774;8.916;2023-03-14T04:40:08;3.53;;;0.77;;
54705;SDS011;40603;48.774;8.916;2023-03-14T04:42:34;7.40;;;0.95;;
54705;SDS011;40603;48.774;8.916;2023-03-14T04:44:59;5.20;;;0.60;;
54705;SDS011;40603;48.774;8.916;2023-03-14T04:47:25;1.05;;;0.63;;
54705;SDS011;40603;48.774;8.916;2023-03-14T04:49:50;2.78;;;0.80;;
54705;SDS011;40603;48.774;8.916;2023-03-14T04:52:16;1.98;;;0.82;;
54705;SDS011;40603;48.774;8.916;2023-03-14T04:54:41;4.07;;;0.88;;
54705;SDS011;40603;48.774;8.916;2023-03-14T04:57:06;2.92;;;0.60;;
54705;SDS011;40603;48.774;8.916;2023-03-14T04:59:31;5.13;;;0.90;;
54705;SDS011;40603;48.774;8.916;2023-03-14T05:01:57;2.75;;;0.80;;
54705;SDS011;40603;48.774;8.916;2023-03-14T05:04:22;7.30;;;1.00;;
54705;SDS011;40603;48.774;8.916;2023-03-14T05:06:47;3.20;;;0.57;;
54705;SDS011;40603;48.774;8.916;2023-03-14T05:09:13;3.25;;;0.70;;
54705;SDS011;40603;48.774;8.916;2023-03-14T05:11:38;5.45;;;0.90;;
54705;SDS011;40603;48.774;8.916;2023-03-14T05:14:03;3.70;;;0.70;;
54705;SDS011;40603;48.774;8.916;2023-03-14T05:16:29;3.35;;;0.50;;
54705;SDS011;40603;48.774;8.916;2023-03-14T05:18:54;3.85;;;0.73;;
54705;SDS011;40603;48.774;8.916;2023-03-14T05:21:19;4.25;;;0.88;;
54705;SDS011;40603;48.774;8.916;2023-03-14T05:23:44;1.00;;;0.32;;
54705;SDS011;40603;48.774;8.916;2023-03-14T05:26:10;3.13;;;0.65;;
54705;SDS011;40603;48.774;8.916;2023-03-14T05:28:35;2.17;;;0.60;;
54705;SDS011;40603;48.774;8.916;2023-03-14T05:31:00;3.88;;;0.70;;
54705;SDS011;40603;48.774;8.916;2023-03-14T05:33:26;5.57;;;0.88;;
54705;SDS011;40603;48.774;8.916;2023-03-14T05:35:51;7.68;;;1.10;;
54705;SDS011;40603;48.774;8.916;2023-03-14T05:38:16;6.75;;;0.80;;
54705;SDS011;40603;48.774;8.916;2023-03-14T05:40:42;4.40;;;0.90;;
54705;SDS011;40603;48.774;8.916;2023-03-14T05:43:07;4.22;;;0.70;;
54705;SDS011;40603;48.774;8.916;2023-03-14T05:45:33;3.83;;;0.70;;
54705;SDS011;40603;48.774;8.916;2023-03-14T05:47:59;1.60;;;0.57;;
54705;SDS011;40603;48.774;8.916;2023-03-14T05:50:25;2.70;;;0.60;;
54705;SDS011;40603;48.774;8.916;2023-03-14T05:52:50;1.63;;;0.60;;
54705;SDS011;40603;48.774;8.916;2023-03-14T05:55:15;2.60;;;0.70;;
54705;SDS011;40603;48.774;8.916;2023-03-14T05:57:41;2.67;;;0.60;;
54705;SDS011;40603;48.774;8.916;2023-03-14T06:00:06;2.58;;;0.52;;
54705;SDS011;40603;48.774;8.916;2023-03-14T06:02:32;2.78;;;0.57;;
54705;SDS011;40603;48.774;8.916;2023-03-14T06:04:57;2.28;;;0.63;;
54705;SDS011;40603;48.774;8.916;2023-03-14T06:07:22;4.78;;;0.85;;
54705;SDS011;40603;48.774;8.916;2023-03-14T06:09:48;2.50;;;0.60;;
54705;SDS011;40603;48.774;8.916;2023-03-14T06:12:13;3.22;;;0.80;;
54705;SDS011;40603;48.774;8.916;2023-03-14T06:14:38;1.73;;;0.55;;
54705;SDS011;40603;48.774;8.916;2023-03-14T06:17:04;4.40;;;0.77;;
54705;SDS011;40603;48.774;8.916;2023-03-14T06:19:29;2.42;;;0.55;;
54705;SDS011;40603;48.774;8.916;2023-03-14T06:21:54;3.17;;;0.30;;
54705;SDS011;40603;48.774;8.916;2023-03-14T06:24:20;3.35;;;0.68;;
54705;SDS011;40603;48.774;8.916;2023-03-14T06:26:45;5.65;;;0.60;;
54705;SDS011;40603;48.774;8.916;2023-03-14T06:29:10;1.80;;;0.70;;
54705;SDS011;40603;48.774;8.916;2023-03-14T06:31:36;4.43;;;0.95;;
54705;SDS011;40603;48.774;8.916;2023-03-14T06:34:01;1.48;;;0.52;;
54705;SDS011;40603;48.774;8.916;2023-03-14T06:36:26;4.28;;;0.73;;
54705;SDS011;40603;48.774;8.916;2023-03-14T06:38:52;1.55;;;0.40;;
54705;SDS011;40603;48.774;8.916;2023-03-14T06:41:17;1.38;;;0.45;;
54705;SDS011;40603;48.774;8.916;2023-03-14T06:43:42;1.02;;;0.50;;
54705;SDS011;40603;48.774;8.916;2023-03-14T06:46:07;3.47;;;0.40;;
54705;SDS011;40603;48.774;8.916;2023-03-14T06:48:33;1.00;;;0.40;;
54705;SDS011;40603;48.774;8.916;2023-03-14T06:50:58;0.73;;;0.47;;
54705;SDS011;40603;48.774;8.916;2023-03-14T06:53:23;1.05;;;0.30;;
54705;SDS011;40603;48.774;8.916;2023-03-14T06:55:49;1.85;;;0.30;;
54705;SDS011;40603;48.774;8.916;2023-03-14T06:58:14;0.98;;;0.30;;
54705;SDS011;40603;48.774;8.916;2023-03-14T07:00:39;1.55;;;0.35;;
54705;SDS011;40603;48.774;8.916;2023-03-14T07:03:05;0.60;;;0.38;;
54705;SDS011;40603;48.774;8.916;2023-03-14T07:05:30;0.65;;;0.65;;
54705;SDS011;40603;48.774;8.916;2023-03-14T07:07:55;0.57;;;0.50;;
54705;SDS011;40603;48.774;8.916;2023-03-14T07:10:21;1.33;;;0.30;;
54705;SDS011;40603;48.774;8.916;2023-03-14T07:12:46;3.75;;;0.60;;
54705;SDS011;40603;48.774;8.916;2023-03-14T07:15:11;1.35;;;0.40;;
54705;SDS011;40603;48.774;8.916;2023-03-14T07:17:37;1.13;;;0.40;;
54705;SDS011;40603;48.774;8.916;2023-03-14T07:20:02;2.10;;;0.70;;
54705;SDS011;40603;48.774;8.916;2023-03-14T07:22:29;2.67;;;0.50;;
54705;SDS011;40603;48.774;8.916;2023-03-14T07:24:55;1.27;;;0.55;;
54705;SDS011;40603;48.774;8.916;2023-03-14T07:27:20;2.55;;;0.22;;
54705;SDS011;40603;48.774;8.916;2023-03-14T07:29:45;1.60;;;0.50;;
54705;SDS011;40603;48.774;8.916;2023-03-14T07:32:10;0.82;;;0.40;;
54705;SDS011;40603;48.774;8.916;2023-03-14T07:34:39;1.65;;;0.30;;
54705;SDS011;40603;48.774;8.916;2023-03-14T07:37:05;0.95;;;0.35;;
54705;SDS011;40603;48.774;8.916;2023-03-14T07:39:30;3.28;;;0.73;;
54705;SDS011;40603;48.774;8.916;2023-03-14T07:41:55;0.73;;;0.47;;
54705;SDS011;40603;48.774;8.916;2023-03-14T07:44:21;2.00;;;0.47;;
54705;SDS011;40603;48.774;8.916;2023-03-14T07:46:46;2.03;;;0.30;;
54705;SDS011;40603;48.774;8.916;2023-03-14T07:49:11;1.17;;;0.47;;
54705;SDS011;40603;48.774;8.916;2023-03-14T07:51:37;2.95;;;1.48;;
54705;SDS011;40603;48.774;8.916;2023-03-14T07:54:02;0.82;;;0.40;;
54705;SDS011;40603;48.774;8.916;2023-03-14T07:56:27;0.57;;;0.30;;
54705;SDS011;40603;48.774;8.916;2023-03-14T07:58:53;2.17;;;0.40;;
54705;SDS011;40603;48.774;8.916;2023-03-14T08:01:18;1.25;;;0.28;;
54705;SDS011;40603;48.774;8.916;2023-03-14T08:03:43;2.35;;;0.20;;
54705;SDS011;40603;48.774;8.916;2023-03-14T08:06:08;1.40;;;0.30;;
54705;SDS011;40603;48.774;8.916;2023-03-14T08:08:34;0.60;;;0.30;;
54705;SDS011;40603;48.774;8.916;2023-03-14T08:11:03;2.25;;;0.40;;
54705;SDS011;40603;48.774;8.916;2023-03-14T08:13:29;0.32;;;0.32;;
54705;SDS011;40603;48.774;8.916;2023-03-14T08:15:54;0.60;;;0.40;;
54705;SDS011;40603;48.774;8.916;2023-03-14T08:18:20;2.85;;;0.57;;
54705;SDS011;40603;48.774;8.916;2023-03-14T08:20:45;0.88;;;0.28;;
54705;SDS011;40603;48.774;8.916;2023-03-14T08:23:10;3.13;;;0.63;;
54705;SDS011;40603;48.774;8.916;2023-03-14T08:25:37;1.02;;;0.30;;
54705;SDS011;40603;48.774;8.916;2023-03-14T08:28:02;0.95;;;0.45;;
54705;SDS011;40603;48.774;8.916;2023-03-14T08:30:29;2.72;;;0.40;;
54705;SDS011;40603;48.774;8.916;2023-03-14T08:32:55;0.32;;;0.25;;
54705;SDS011;40603;48.774;8.916;2023-03-14T08:35:22;0.75;;;0.30;;
54705;SDS011;40603;48.774;8.916;2023-03-14T08:37:47;1.77;;;0.60;;
54705;SDS011;40603;48.774;8.916;2023-03-14T08:40:13;2.17;;;0.20;;
54705;SDS011;40603;48.774;8.916;2023-03-14T08:42:39;2.13;;;0.45;;
54705;SDS011;40603;48.774;8.916;2023-03-14T08:45:05;0.70;;;0.40;;
54705;SDS011;40603;48.774;8.916;2023-03-14T08:47:31;0.70;;;0.43;;
54705;SDS011;40603;48.774;8.916;2023-03-14T08:49:56;0.32;;;0.30;;
54705;SDS011;40603;48.774;8.916;2023-03-14T08:52:22;0.60;;;0.20;;
54705;SDS011;40603;48.774;8.916;2023-03-14T08:54:47;2.55;;;0.30;;
54705;SDS011;40603;48.774;8.916;2023-03-14T08:57:13;0.80;;;0.32;;
54705;SDS011;40603;48.774;8.916;2023-03-14T08:59:38;2.38;;;0.60;;
54705;SDS011;40603;48.774;8.916;2023-03-14T09:02:03;1.50;;;0.30;;
54705;SDS011;40603;48.774;8.916;2023-03-14T09:04:29;0.68;;;0.32;;
54705;SDS011;40603;48.774;8.916;2023-03-14T09:06:55;0.45;;;0.28;;
54705;SDS011;40603;48.774;8.916;2023-03-14T09:09:22;1.40;;;0.40;;
54705;SDS011;40603;48.774;8.916;2023-03-14T09:11:48;2.42;;;0.50;;
54705;SDS011;40603;48.774;8.916;2023-03-14T09:14:13;2.70;;;0.40;;
54705;SDS011;40603;48.774;8.916;2023-03-14T09:16:39;0.90;;;0.40;;
54705;SDS011;40603;48.774;8.916;2023-03-14T09:19:04;1.45;;;0.40;;
54705;SDS011;40603;48.774;8.916;2023-03-14T09:21:30;0.28;;;0.22;;
54705;SDS011;40603;48.774;8.916;2023-03-14T09:23:55;1.80;;;0.63;;
54705;SDS011;40603;48.774;8.916;2023-03-14T09:26:21;0.60;;;0.30;;
54705;SDS011;40603;48.774;8.916;2023-03-14T09:28:46;0.43;;;0.40;;
54705;SDS011;40603;48.774;8.916;2023-03-14T09:31:12;0.68;;;0.30;;
54705;SDS011;40603;48.774;8.916;2023-03-14T09:33:37;0.30;;;0.30;;
54705;SDS011;40603;48.774;8.916;2023-03-14T09:36:03;0.75;;;0.30;;
54705;SDS011;40603;48.774;8.916;2023-03-14T09:38:29;0.85;;;0.40;;
54705;SDS011;40603;48.774;8.916;2023-03-14T09:40:54;0.70;;;0.63;;
54705;SDS011;40603;48.774;8.916;2023-03-14T09:43:23;0.30;;;0.30;;
54705;SDS011;40603;48.774;8.916;2023-03-14T09:45:49;0.32;;;0.30;;
54705;SDS011;40603;48.774;8.916;2023-03-14T09:48:16;0.52;;;0.30;;
54705;SDS011;40603;48.774;8.916;2023-03-14T09:50:46;0.30;;;0.30;;
54705;SDS011;40603;48.774;8.916;2023-03-14T09:53:15;0.73;;;0.35;;
54705;SDS011;40603;48.774;8.916;2023-03-14T09:55:42;1.27;;;0.30;;
54705;SDS011;40603;48.774;8.916;2023-03-14T09:58:12;3.22;;;0.20;;
54705;SDS011;40603;48.774;8.916;2023-03-14T10:00:38;1.20;;;0.40;;
54705;SDS011;40603;48.774;8.916;2023-03-14T10:05:39;0.20;;;0.20;;
54705;SDS011;40603;48.774;8.916;2023-03-14T10:08:05;0.20;;;0.20;;
54705;SDS011;40603;48.774;8.916;2023-03-14T10:10:31;0.40;;;0.17;;
54705;SDS011;40603;48.774;8.916;2023-03-14T10:13:05;1.35;;;0.20;;
54705;SDS011;40603;48.774;8.916;2023-03-14T10:15:40;0.20;;;0.20;;
54705;SDS011;40603;48.774;8.916;2023-03-14T10:18:09;0.82;;;0.50;;
54705;SDS011;40603;48.774;8.916;2023-03-14T10:20:38;0.20;;;0.20;;
54705;SDS011;40603;48.774;8.916;2023-03-14T10:25:42;0.65;;;0.20;;
54705;SDS011;40603;48.774;8.916;2023-03-14T10:30:40;0.55;;;0.20;;
54705;SDS011;40603;48.774;8.916;2023-03-14T10:33:10;1.58;;;0.38;;
54705;SDS011;40603;48.774;8.916;2023-03-14T10:35:37;0.50;;;0.20;;
54705;SDS011;40603;48.774;8.916;2023-03-14T10:38:03;0.20;;;0.20;;
54705;SDS011;40603;48.774;8.916;2023-03-14T10:40:30;0.20;;;0.20;;
54705;SDS011;40603;48.774;8.916;2023-03-14T10:42:57;0.52;;;0.40;;
54705;SDS011;40603;48.774;8.916;2023-03-14T10:48:05;0.17;;;0.13;;
54705;SDS011;40603;48.774;8.916;2023-03-14T10:50:50;0.30;;;0.10;;
54705;SDS011;40603;48.774;8.916;2023-03-14T10:53:19;0.52;;;0.30;;
54705;SDS011;40603;48.774;8.916;2023-03-14T10:55:45;1.20;;;0.38;;
54705;SDS011;40603;48.774;8.916;2023-03-14T10:58:17;0.98;;;0.43;;
54705;SDS011;40603;48.774;8.916;2023-03-14T11:00:44;0.20;;;0.20;;
54705;SDS011;40603;48.774;8.916;2023-03-14T11:03:12;0.25;;;0.25;;
54705;SDS011;40603;48.774;8.916;2023-03-14T11:05:43;0.63;;;0.20;;
54705;SDS011;40603;48.774;8.916;2023-03-14T11:16:14;1.25;;;0.30;;
54705;SDS011;40603;48.774;8.916;2023-03-14T11:18:57;0.28;;;0.15;;
54705;SDS011;40603;48.774;8.916;2023-03-14T11:27:07;0.30;;;0.30;;
54705;SDS011;40603;48.774;8.916;2023-03-14T11:32:22;0.15;;;0.10;;
54705;SDS011;40603;48.774;8.916;2023-03-14T11:34:52;0.30;;;0.15;;
54705;SDS011;40603;48.774;8.916;2023-03-14T11:37:26;0.20;;;0.10;;
54705;SDS011;40603;48.774;8.916;2023-03-14T11:40:13;0.82;;;0.20;;
54705;SDS011;40603;48.774;8.916;2023-03-14T11:42:44;0.47;;;0.13;;
54705;SDS011;40603;48.774;8.916;2023-03-14T11:45:20;0.43;;;0.20;;
54705;SDS011;40603;48.774;8.916;2023-03-14T11:47:53;1.00;;;0.10;;
54705;SDS011;40603;48.774;8.916;2023-03-14T11:50:27;0.20;;;0.20;;
54705;SDS011;40603;48.774;8.916;2023-03-14T11:52:54;0.25;;;0.25;;
54705;SDS011;40603;48.774;8.916;2023-03-14T11:57:50;0.10;;;0.10;;
54705;SDS011;40603;48.774;8.916;2023-03-14T12:00:19;0.45;;;0.32;;
54705;SDS011;40603;48.774;8.916;2023-03-14T12:10:37;0.17;;;0.17;;
54705;SDS011;40603;48.774;8.916;2023-03-14T12:13:04;0.28;;;0.20;;
54705;SDS011;40603;48.774;8.916;2023-03-14T12:15:29;0.32;;;0.32;;
54705;SDS011;40603;48.774;8.916;2023-03-14T12:17:55;0.30;;;0.30;;
54705;SDS011;40603;48.774;8.916;2023-03-14T12:20:21;0.20;;;0.20;;
54705;SDS011;40603;48.774;8.916;2023-03-14T12:22:51;0.32;;;0.30;;
54705;SDS011;40603;48.774;8.916;2023-03-14T12:25:20;0.85;;;0.40;;
54705;SDS011;40603;48.774;8.916;2023-03-14T12:35:48;0.98;;;0.40;;
54705;SDS011;40603;48.774;8.916;2023-03-14T12:38:23;1.05;;;0.40;;
54705;SDS011;40603;48.774;8.916;2023-03-14T12:41:01;0.68;;;0.40;;
54705;SDS011;40603;48.774;8.916;2023-03-14T12:43:31;0.40;;;0.40;;
54705;SDS011;40603;48.774;8.916;2023-03-14T12:56:55;1.15;;;0.50;;
54705;SDS011;40603;48.774;8.916;2023-03-14T13:02:26;0.80;;;0.52;;
54705;SDS011;40603;48.774;8.916;2023-03-14T13:05:18;2.22;;;0.50;;
54705;SDS011;40603;48.774;8.916;2023-03-14T13:17:47;0.98;;;0.50;;
54705;SDS011;40603;48.774;8.916;2023-03-14T13:20:22;5.55;;;0.63;;
54705;SDS011;40603;48.774;8.916;2023-03-14T13:23:24;0.80;;;0.52;;
54705;SDS011;40603;48.774;8.916;2023-03-14T13:25:50;3.28;;;0.43;;
54705;SDS011;40603;48.774;8.916;2023-03-14T13:28:16;2.03;;;0.70;;
54705;SDS011;40603;48.774;8.916;2023-03-14T13:30:43;1.38;;;0.50;;
54705;SDS011;40603;48.774;8.916;2023-03-14T13:33:14;1.38;;;0.70;;
54705;SDS011;40603;48.774;8.916;2023-03-14T13:35:44;0.57;;;0.40;;
54705;SDS011;40603;48.774;8.916;2023-03-14T13:38:16;1.50;;;0.60;;
54705;SDS011;40603;48.774;8.916;2023-03-14T13:40:43;4.55;;;0.70;;
54705;SDS011;40603;48.774;8.916;2023-03-14T13:46:04;4.57;;;0.57;;
54705;SDS011;40603;48.774;8.916;2023-03-14T13:48:32;0.85;;;0.20;;
54705;SDS011;40603;48.774;8.916;2023-03-14T13:51:05;0.50;;;0.47;;
54705;SDS011;40603;48.774;8.916;2023-03-14T13:53:32;4.03;;;0.77;;
54705;SDS011;40603;48.774;8.916;2023-03-14T13:56:08;1.95;;;0.77;;
54705;SDS011;40603;48.774;8.916;2023-03-14T13:58:34;1.20;;;0.60;;
54705;SDS011;40603;48.774;8.916;2023-03-14T14:01:03;1.75;;;0.40;;
54705;SDS011;40603;48.774;8.916;2023-03-14T14:03:31;2.00;;;0.60;;
54705;SDS011;40603;48.774;8.916;2023-03-14T14:05:58;3.88;;;0.40;;
54705;SDS011;40603;48.774;8.916;2023-03-14T14:08:24;1.05;;;0.40;;
54705;SDS011;40603;48.774;8.916;2023-03-14T14:10:50;2.38;;;0.50;;
54705;SDS011;40603;48.774;8.916;2023-03-14T14:13:25;1.48;;;0.55;;
54705;SDS011;40603;48.774;8.916;2023-03-14T14:15:55;1.98;;;0.30;;
54705;SDS011;40603;48.774;8.916;2023-03-14T14:18:22;0.63;;;0.40;;
54705;SDS011;40603;48.774;8.916;2023-03-14T14:20:49;1.98;;;0.47;;
54705;SDS011;40603;48.774;8.916;2023-03-14T14:23:16;0.80;;;0.43;;
54705;SDS011;40603;48.774;8.916;2023-03-14T14:25:54;1.58;;;0.50;;
54705;SDS011;40603;48.774;8.916;2023-03-14T14:28:23;4.00;;;0.52;;
54705;SDS011;40603;48.774;8.916;2023-03-14T14:31:01;1.02;;;0.52;;
54705;SDS011;40603;48.774;8.916;2023-03-14T14:33:29;2.40;;;0.43;;
54705;SDS011;40603;48.774;8.916;2023-03-14T14:36:04;2.60;;;0.75;;
54705;SDS011;40603;48.774;8.916;2023-03-14T14:38:29;2.00;;;0.70;;
54705;SDS011;40603;48.774;8.916;2023-03-14T14:40:58;3.40;;;0.60;;
54705;SDS011;40603;48.774;8.916;2023-03-14T14:43:26;1.60;;;0.68;;
54705;SDS011;40603;48.774;8.916;2023-03-14T14:45:53;4.45;;;0.60;;
54705;SDS011;40603;48.774;8.916;2023-03-14T14:48:21;1.17;;;0.70;;
54705;SDS011;40603;48.774;8.916;2023-03-14T14:53:35;5.18;;;1.00;;
54705;SDS011;40603;48.774;8.916;2023-03-14T14:56:15;3.47;;;0.73;;
54705;SDS011;40603;48.774;8.916;2023-03-14T14:58:44;1.52;;;0.80;;
54705;SDS011;40603;48.774;8.916;2023-03-14T15:01:12;3.53;;;0.70;;
54705;SDS011;40603;48.774;8.916;2023-03-14T15:03:41;1.38;;;0.50;;
54705;SDS011;40603;48.774;8.916;2023-03-14T15:06:08;2.17;;;0.70;;
54705;SDS011;40603;48.774;8.916;2023-03-14T15:08:34;2.72;;;1.02;;
54705;SDS011;40603;48.774;8.916;2023-03-14T15:10:59;2.92;;;0.60;;
54705;SDS011;40603;48.774;8.916;2023-03-14T15:13:24;1.55;;;0.65;;
54705;SDS011;40603;48.774;8.916;2023-03-14T15:15:50;2.67;;;0.73;;
54705;SDS011;40603;48.774;8.916;2023-03-14T15:18:20;1.15;;;0.60;;
54705;SDS011;40603;48.774;8.916;2023-03-14T15:20:46;3.10;;;0.60;;
54705;SDS011;40603;48.774;8.916;2023-03-14T15:23:12;7.18;;;0.80;;
54705;SDS011;40603;48.774;8.916;2023-03-14T15:25:39;4.47;;;0.90;;
54705;SDS011;40603;48.774;8.916;2023-03-14T15:28:10;3.25;;;0.70;;
54705;SDS011;40603;48.774;8.916;2023-03-14T15:30:39;2.55;;;0.77;;
54705;SDS011;40603;48.774;8.916;2023-03-14T15:33:04;2.67;;;1.00;;
54705;SDS011;40603;48.774;8.916;2023-03-14T15:35:33;3.42;;;0.90;;
54705;SDS011;40603;48.774;8.916;2023-03-14T15:37:59;2.72;;;0.70;;
54705;SDS011;40603;48.774;8.916;2023-03-14T15:40:24;1.70;;;0.70;;
54705;SDS011;40603;48.774;8.916;2023-03-14T15:42:50;2.47;;;0.88;;
54705;SDS011;40603;48.774;8.916;2023-03-14T15:45:15;1.00;;;0.55;;
54705;SDS011;40603;48.774;8.916;2023-03-14T15:47:40;2.80;;;0.80;;
54705;SDS011;40603;48.774;8.916;2023-03-14T15:50:06;2.40;;;0.70;;
54705;SDS011;40603;48.774;8.916;2023-03-14T15:52:34;2.90;;;0.63;;
54705;SDS011;40603;48.774;8.916;2023-03-14T15:54:59;1.83;;;0.90;;
54705;SDS011;40603;48.774;8.916;2023-03-14T15:57:25;4.30;;;0.90;;
54705;SDS011;40603;48.774;8.916;2023-03-14T15:59:50;1.83;;;1.00;;
54705;SDS011;40603;48.774;8.916;2023-03-14T16:02:15;5.22;;;0.75;;
54705;SDS011;40603;48.774;8.916;2023-03-14T16:04:41;4.22;;;1.00;;